Time;durP1;ratioP1;P1;durP2;ratioP2;P2;SDS_P1;SDS_P2;PMS_P1;PMS_P2;Temp;Humidity;BMP_temperature;BMP_pressure;BME280_temperature;BME280_humidity;BME280_pressure;Samples;Min_cycle;Max_cycle;Signal;HPM_P1;HPM_P2
2022/03/01 00:02:00;;;;;;;13.60;8.20;;;;;;;;;;5052103;28;20460;-64
2022/03/01 00:04:26;;;;;;;16.20;8.73;;;;;;;;;;5052892;28;20465;-60
2022/03/01 00:06:52;;;;;;;10.67;7.10;;;;;;;;;;5053108;28;20958;-61
2022/03/01 00:09:18;;;;;;;16.00;7.97;;;;;;;;;;5053194;28;20402;-65
2022/03/01 00:11:44;;;;;;;15.27;8.30;;;;;;;;;;5053142;28;20399;-60
2022/03/01 00:14:10;;;;;;;10.87;6.87;;;;;;;;;;5053066;28;20959;-63
2022/03/01 00:16:36;;;;;;;14.20;8.93;;;;;;;;;;5052837;28;20740;-62
2022/03/01 00:19:02;;;;;;;13.57;7.30;;;;;;;;;;5053048;28;20921;-61
2022/03/01 00:21:28;;;;;;;12.80;7.90;;;;;;;;;;5052876;28;20826;-60
2022/03/01 00:23:55;;;;;;;16.00;8.40;;;;;;;;;;5052925;28;20464;-75
2022/03/01 00:26:21;;;;;;;14.10;8.43;;;;;;;;;;5053015;28;20745;-60
2022/03/01 00:28:47;;;;;;;15.33;9.10;;;;;;;;;;5052994;28;20545;-75
2022/03/01 00:31:13;;;;;;;13.83;7.93;;;;;;;;;;5053044;28;20496;-75
2022/03/01 00:33:39;;;;;;;17.23;8.30;;;;;;;;;;5052962;28;20462;-75
2022/03/01 00:36:06;;;;;;;12.73;7.97;;;;;;;;;;5052872;28;20417;-70
2022/03/01 00:38:32;;;;;;;15.57;9.57;;;;;;;;;;5053052;28;20412;-69
2022/03/01 00:40:58;;;;;;;15.30;8.93;;;;;;;;;;5052751;28;20411;-74
2022/03/01 00:43:24;;;;;;;15.20;8.43;;;;;;;;;;5052690;28;20469;-75
2022/03/01 00:45:51;;;;;;;15.80;8.60;;;;;;;;;;5052801;28;20399;-69
2022/03/01 00:48:17;;;;;;;14.87;8.50;;;;;;;;;;5052904;28;20403;-74
2022/03/01 00:50:44;;;;;;;13.70;8.10;;;;;;;;;;5052916;28;20403;-77
2022/03/01 00:53:10;;;;;;;14.50;8.13;;;;;;;;;;5052701;28;20402;-72
2022/03/01 00:55:36;;;;;;;16.47;8.77;;;;;;;;;;5052611;28;20398;-68
2022/03/01 00:58:03;;;;;;;16.80;8.23;;;;;;;;;;5056012;28;20418;-76
2022/03/01 01:00:30;;;;;;;14.47;8.17;;;;;;;;;;5056723;28;20407;-69
2022/03/01 01:02:56;;;;;;;16.97;8.90;;;;;;;;;;5056447;28;20478;-75
2022/03/01 01:05:22;;;;;;;12.73;7.63;;;;;;;;;;5056371;28;20478;-76
2022/03/01 01:07:48;;;;;;;14.37;8.60;;;;;;;;;;5056455;28;20404;-65
2022/03/01 01:10:15;;;;;;;15.00;7.63;;;;;;;;;;5056489;28;20405;-63
2022/03/01 01:12:41;;;;;;;16.43;8.50;;;;;;;;;;5056352;28;20410;-61
2022/03/01 01:15:08;;;;;;;12.87;8.83;;;;;;;;;;5056360;28;20418;-63
2022/03/01 01:17:35;;;;;;;18.87;8.60;;;;;;;;;;5056325;28;20469;-61
2022/03/01 01:20:01;;;;;;;14.43;7.60;;;;;;;;;;5056283;28;20773;-61
2022/03/01 01:22:42;;;;;;;17.30;9.40;;;;;;;;;;5056032;28;20874;-65
2022/03/01 01:25:09;;;;;;;15.87;8.33;;;;;;;;;;5056364;28;20398;-61
2022/03/01 01:27:36;;;;;;;13.17;8.47;;;;;;;;;;5056095;28;20413;-66
2022/03/01 01:30:02;;;;;;;13.57;7.70;;;;;;;;;;5056124;28;20433;-69
2022/03/01 02:03:23;;;;;;;15.10;8.00;;;;;;;;;;5054676;28;20461;-61
2022/03/01 02:05:49;;;;;;;15.93;8.73;;;;;;;;;;5054902;28;20462;-63
2022/03/01 02:08:15;;;;;;;17.23;8.40;;;;;;;;;;5054223;28;20395;-61
2022/03/01 02:10:41;;;;;;;17.63;8.20;;;;;;;;;;5055441;28;20411;-60
2022/03/01 02:13:07;;;;;;;16.53;8.23;;;;;;;;;;5055430;28;20889;-61
2022/03/01 02:15:35;;;;;;;14.07;7.53;;;;;;;;;;5055239;28;20411;-62
2022/03/01 02:18:02;;;;;;;13.03;7.47;;;;;;;;;;5055191;28;20462;-60
2022/03/01 02:20:30;;;;;;;16.43;8.83;;;;;;;;;;5055135;28;20444;-71
2022/03/01 02:22:57;;;;;;;14.73;8.60;;;;;;;;;;5054947;28;20546;-63
2022/03/01 02:25:23;;;;;;;15.83;7.93;;;;;;;;;;5055025;28;20423;-63
2022/03/01 02:27:49;;;;;;;14.37;8.70;;;;;;;;;;5054917;28;20419;-73
2022/03/01 02:30:15;;;;;;;18.50;10.30;;;;;;;;;;5054928;28;20412;-69
2022/03/01 02:32:42;;;;;;;14.53;8.80;;;;;;;;;;5054920;28;20490;-74
2022/03/01 02:35:09;;;;;;;15.23;8.17;;;;;;;;;;5054936;28;20407;-73
2022/03/01 02:37:35;;;;;;;15.00;7.80;;;;;;;;;;5053436;28;20414;-72
2022/03/01 02:40:01;;;;;;;15.37;8.47;;;;;;;;;;5054675;28;20590;-73
2022/03/01 02:42:30;;;;;;;14.17;8.57;;;;;;;;;;5054776;28;20411;-72
2022/03/01 02:44:56;;;;;;;14.93;8.23;;;;;;;;;;5054589;28;20421;-67
2022/03/01 02:47:22;;;;;;;13.57;8.60;;;;;;;;;;5054690;28;20818;-75
2022/03/01 02:49:48;;;;;;;17.63;9.90;;;;;;;;;;5054678;28;20437;-74
2022/03/01 02:52:14;;;;;;;15.70;8.30;;;;;;;;;;5054549;28;20777;-71
2022/03/01 02:54:40;;;;;;;16.67;8.63;;;;;;;;;;5054505;28;20427;-76
2022/03/01 02:57:06;;;;;;;14.93;8.37;;;;;;;;;;5054445;28;20409;-69
2022/03/01 02:59:32;;;;;;;15.73;9.13;;;;;;;;;;5054312;28;20430;-73
2022/03/01 03:01:59;;;;;;;15.47;8.83;;;;;;;;;;5054374;28;20446;-71
2022/03/01 03:04:25;;;;;;;17.17;8.50;;;;;;;;;;5053963;28;20536;-74
2022/03/01 03:06:51;;;;;;;16.47;8.20;;;;;;;;;;5054153;28;20878;-75
2022/03/01 03:09:17;;;;;;;15.50;8.37;;;;;;;;;;5054176;28;20442;-76
2022/03/01 03:11:44;;;;;;;13.60;7.90;;;;;;;;;;5054087;28;20426;-76
2022/03/01 03:14:10;;;;;;;14.97;7.87;;;;;;;;;;5054195;28;20754;-75
2022/03/01 03:16:36;;;;;;;14.57;8.23;;;;;;;;;;5054041;28;20494;-61
2022/03/01 03:19:02;;;;;;;16.60;8.97;;;;;;;;;;5053719;28;20497;-61
2022/03/01 03:21:28;;;;;;;13.73;8.73;;;;;;;;;;5053836;28;20409;-61
2022/03/01 03:23:54;;;;;;;13.40;8.53;;;;;;;;;;5053679;28;20479;-62
2022/03/01 03:26:20;;;;;;;13.30;7.50;;;;;;;;;;5053883;28;20509;-61
2022/03/01 03:28:46;;;;;;;15.00;8.27;;;;;;;;;;5053656;28;20452;-76
2022/03/01 03:31:12;;;;;;;14.73;8.33;;;;;;;;;;5053833;28;20954;-74
2022/03/01 03:33:39;;;;;;;17.17;10.00;;;;;;;;;;5053778;28;20804;-76
2022/03/01 03:36:05;;;;;;;12.47;8.20;;;;;;;;;;5053717;28;20856;-77
2022/03/01 03:38:31;;;;;;;14.83;8.70;;;;;;;;;;5053632;28;20420;-74
2022/03/01 03:40:57;;;;;;;13.17;8.10;;;;;;;;;;5053730;28;20403;-70
2022/03/01 03:43:23;;;;;;;12.70;7.57;;;;;;;;;;5053491;28;21001;-77
2022/03/01 03:45:49;;;;;;;15.57;8.00;;;;;;;;;;5053368;28;20409;-64
2022/03/01 03:48:15;;;;;;;18.80;10.13;;;;;;;;;;5053483;28;20413;-65
2022/03/01 03:50:42;;;;;;;14.07;8.30;;;;;;;;;;5053604;28;20476;-67
2022/03/01 03:53:08;;;;;;;14.47;8.13;;;;;;;;;;5053391;28;20459;-64
2022/03/01 03:55:34;;;;;;;15.13;8.50;;;;;;;;;;5053314;28;20419;-62
2022/03/01 03:58:00;;;;;;;14.00;7.50;;;;;;;;;;5053290;28;20484;-62
2022/03/01 04:00:26;;;;;;;15.83;8.23;;;;;;;;;;5053325;28;20912;-61
2022/03/01 04:02:52;;;;;;;14.60;8.90;;;;;;;;;;5051984;28;20503;-65
2022/03/01 04:05:18;;;;;;;14.52;8.38;;;;;;;;;;5052751;28;20469;-62
2022/03/01 04:07:45;;;;;;;16.80;9.07;;;;;;;;;;5053220;28;20712;-61
2022/03/01 04:10:12;;;;;;;19.52;8.50;;;;;;;;;;5053254;28;20504;-68
2022/03/01 04:12:39;;;;;;;12.95;7.95;;;;;;;;;;5053177;28;20179;-61
2022/03/01 04:15:05;;;;;;;18.53;8.50;;;;;;;;;;5051841;28;20218;-61
2022/03/01 04:17:31;;;;;;;13.93;8.30;;;;;;;;;;5052949;28;20758;-63
2022/03/01 04:19:58;;;;;;;14.43;8.83;;;;;;;;;;5053239;28;20459;-61
2022/03/01 04:22:24;;;;;;;14.03;8.30;;;;;;;;;;5051838;28;20411;-71
2022/03/01 04:24:50;;;;;;;13.57;8.23;;;;;;;;;;5052970;28;20459;-74
2022/03/01 04:27:17;;;;;;;14.37;8.10;;;;;;;;;;5052898;28;20177;-75
2022/03/01 04:29:43;;;;;;;15.47;8.47;;;;;;;;;;5052844;28;20915;-75
2022/03/01 04:32:09;;;;;;;11.53;7.80;;;;;;;;;;5057181;28;20485;-75
2022/03/01 04:34:36;;;;;;;13.52;8.70;;;;;;;;;;5059650;28;20457;-69
2022/03/01 04:37:02;;;;;;;12.60;7.73;;;;;;;;;;5059564;28;20167;-75
2022/03/01 04:39:29;;;;;;;16.20;8.57;;;;;;;;;;5059523;28;20406;-74
2022/03/01 04:41:55;;;;;;;14.00;8.10;;;;;;;;;;5059490;28;20467;-72
2022/03/01 04:44:21;;;;;;;16.90;8.57;;;;;;;;;;5059290;28;21088;-72
2022/03/01 04:46:47;;;;;;;15.27;8.50;;;;;;;;;;5059408;28;20443;-69
2022/03/01 04:49:13;;;;;;;16.60;8.90;;;;;;;;;;5059495;28;20432;-75
2022/03/01 04:51:39;;;;;;;15.90;8.67;;;;;;;;;;5058253;28;20422;-75
2022/03/01 04:54:06;;;;;;;14.73;8.60;;;;;;;;;;5058254;28;20399;-76
2022/03/01 04:56:32;;;;;;;14.93;8.40;;;;;;;;;;5059267;28;20571;-75
2022/03/01 04:58:58;;;;;;;13.60;8.52;;;;;;;;;;5059264;28;20426;-68
2022/03/01 05:01:24;;;;;;;12.50;8.03;;;;;;;;;;5059450;28;20335;-63
2022/03/01 05:03:50;;;;;;;15.07;8.60;;;;;;;;;;5059266;28;20556;-60
2022/03/01 05:06:16;;;;;;;18.70;8.20;;;;;;;;;;5057771;28;20540;-62
2022/03/01 05:08:42;;;;;;;18.38;7.90;;;;;;;;;;5059399;28;20515;-60
2022/03/01 05:11:08;;;;;;;15.60;9.27;;;;;;;;;;5059303;28;20199;-60
2022/03/01 05:13:35;;;;;;;13.52;7.72;;;;;;;;;;5059139;28;20521;-66
2022/03/01 05:16:01;;;;;;;14.95;8.77;;;;;;;;;;5059321;28;20262;-69
2022/03/01 05:18:27;;;;;;;14.50;8.20;;;;;;;;;;5059142;28;20171;-64
2022/03/01 05:20:53;;;;;;;18.43;9.10;;;;;;;;;;5059127;28;20418;-72
2022/03/01 05:23:19;;;;;;;16.90;8.77;;;;;;;;;;5058952;28;20476;-70
2022/03/01 05:25:45;;;;;;;12.70;8.23;;;;;;;;;;5059071;28;20177;-61
2022/03/01 05:28:11;;;;;;;13.00;7.57;;;;;;;;;;5059023;28;20204;-68
2022/03/01 05:30:37;;;;;;;14.93;8.03;;;;;;;;;;5059001;28;20410;-67
2022/03/01 05:33:04;;;;;;;13.45;7.80;;;;;;;;;;5059048;28;20410;-72
2022/03/01 05:35:30;;;;;;;14.80;8.43;;;;;;;;;;5058985;28;20267;-65
2022/03/01 05:37:57;;;;;;;15.60;7.93;;;;;;;;;;5058848;28;20255;-67
2022/03/01 05:40:25;;;;;;;13.53;7.73;;;;;;;;;;5059096;28;20517;-66
2022/03/01 05:42:52;;;;;;;14.77;7.97;;;;;;;;;;5057686;28;20879;-70
2022/03/01 05:45:18;;;;;;;16.57;9.63;;;;;;;;;;5055734;28;20451;-71
2022/03/01 05:47:44;;;;;;;14.33;8.50;;;;;;;;;;5055839;28;20473;-63
2022/03/01 05:50:11;;;;;;;17.33;8.70;;;;;;;;;;5055579;28;20789;-72
2022/03/01 05:52:38;;;;;;;17.93;9.67;;;;;;;;;;5055680;28;20427;-73
2022/03/01 05:55:06;;;;;;;15.60;8.93;;;;;;;;;;5054371;28;20407;-70
2022/03/01 05:57:32;;;;;;;17.48;8.80;;;;;;;;;;5055615;28;20170;-73
2022/03/01 05:59:58;;;;;;;14.23;8.03;;;;;;;;;;5055562;28;20226;-66
2022/03/01 06:02:25;;;;;;;15.15;8.77;;;;;;;;;;5055357;28;20419;-71
2022/03/01 06:04:51;;;;;;;15.73;8.98;;;;;;;;;;5055145;28;20219;-64
2022/03/01 06:07:17;;;;;;;16.17;9.17;;;;;;;;;;5055513;28;20178;-75
2022/03/01 06:09:43;;;;;;;15.70;9.30;;;;;;;;;;5055389;28;20462;-75
2022/03/01 06:12:09;;;;;;;14.45;9.32;;;;;;;;;;5055370;28;20467;-77
2022/03/01 06:14:35;;;;;;;17.40;9.13;;;;;;;;;;5055251;28;20177;-76
2022/03/01 06:17:01;;;;;;;13.97;8.10;;;;;;;;;;5055226;28;20415;-75
2022/03/01 06:19:27;;;;;;;15.13;8.85;;;;;;;;;;5055174;28;20866;-76
2022/03/01 06:21:53;;;;;;;18.10;8.52;;;;;;;;;;5055122;28;20617;-76
2022/03/01 06:24:19;;;;;;;16.80;8.10;;;;;;;;;;5055006;28;20239;-72
2022/03/01 06:26:46;;;;;;;16.53;9.20;;;;;;;;;;5054932;28;20414;-76
2022/03/01 06:29:12;;;;;;;15.05;8.95;;;;;;;;;;5054997;28;20459;-70
2022/03/01 06:31:38;;;;;;;16.83;9.07;;;;;;;;;;5055025;28;20528;-73
2022/03/01 06:34:04;;;;;;;18.73;8.57;;;;;;;;;;5054968;28;20406;-75
2022/03/01 06:36:30;;;;;;;15.40;9.60;;;;;;;;;;5054828;28;20501;-78
2022/03/01 06:38:56;;;;;;;16.77;9.60;;;;;;;;;;5054791;28;20411;-75
2022/03/01 06:41:22;;;;;;;19.80;9.43;;;;;;;;;;5054807;28;20407;-76
2022/03/01 06:43:48;;;;;;;18.63;8.60;;;;;;;;;;5054531;28;20266;-77
2022/03/01 06:46:14;;;;;;;12.57;8.10;;;;;;;;;;5054515;28;20411;-74
2022/03/01 06:48:40;;;;;;;17.50;8.90;;;;;;;;;;5054667;28;20488;-77
2022/03/01 06:51:09;;;;;;;15.93;8.90;;;;;;;;;;5054569;28;20502;-76
2022/03/01 06:53:36;;;;;;;17.60;8.97;;;;;;;;;;5054631;28;20181;-73
2022/03/01 06:56:02;;;;;;;12.50;7.90;;;;;;;;;;5053925;28;20386;-77
2022/03/01 06:58:29;;;;;;;19.50;9.40;;;;;;;;;;5054360;28;20437;-76
2022/03/01 07:00:56;;;;;;;20.30;9.43;;;;;;;;;;5054430;28;20825;-65
2022/03/01 07:03:22;;;;;;;17.07;9.20;;;;;;;;;;5054336;28;20502;-64
2022/03/01 07:05:48;;;;;;;17.10;9.60;;;;;;;;;;5054058;28;20459;-61
2022/03/01 07:08:14;;;;;;;15.33;9.03;;;;;;;;;;5054136;28;20427;-61
2022/03/01 07:10:41;;;;;;;14.80;8.80;;;;;;;;;;5054088;28;20444;-64
2022/03/01 07:13:08;;;;;;;20.17;9.73;;;;;;;;;;5054213;28;20894;-62
2022/03/01 07:15:37;;;;;;;20.43;10.13;;;;;;;;;;5054407;28;20443;-76
2022/03/01 07:18:06;;;;;;;14.63;8.63;;;;;;;;;;5054245;28;20893;-78
2022/03/01 07:20:34;;;;;;;21.77;9.20;;;;;;;;;;5054112;28;20418;-78
2022/03/01 07:23:00;;;;;;;16.23;9.40;;;;;;;;;;5052626;28;20469;-72
2022/03/01 07:25:26;;;;;;;22.40;9.63;;;;;;;;;;5053693;28;20484;-61
2022/03/01 07:27:54;;;;;;;16.43;9.50;;;;;;;;;;5053902;28;20557;-75
2022/03/01 07:30:20;;;;;;;15.03;9.20;;;;;;;;;;5054060;28;20403;-73
2022/03/01 07:32:47;;;;;;;15.43;9.23;;;;;;;;;;5053903;28;20426;-65
2022/03/01 07:35:13;;;;;;;16.53;9.57;;;;;;;;;;5053928;28;20797;-70
2022/03/01 07:37:39;;;;;;;15.93;8.93;;;;;;;;;;5053773;28;20404;-69
2022/03/01 07:40:09;;;;;;;14.10;8.33;;;;;;;;;;5053840;28;20819;-77
2022/03/01 07:42:35;;;;;;;20.63;10.23;;;;;;;;;;5053708;28;20411;-77
2022/03/01 07:45:01;;;;;;;17.27;9.00;;;;;;;;;;5053658;28;20914;-74
2022/03/01 07:47:27;;;;;;;15.00;9.87;;;;;;;;;;5053597;28;20438;-77
2022/03/01 07:49:53;;;;;;;18.97;9.87;;;;;;;;;;5053704;28;20739;-74
2022/03/01 07:52:19;;;;;;;14.73;9.60;;;;;;;;;;5053540;28;20410;-75
2022/03/01 07:54:45;;;;;;;14.80;8.50;;;;;;;;;;5053708;28;20418;-76
2022/03/01 07:57:12;;;;;;;17.50;10.63;;;;;;;;;;5053589;28;20490;-78
2022/03/01 07:59:38;;;;;;;19.80;9.90;;;;;;;;;;5053540;28;20866;-78
2022/03/01 08:02:04;;;;;;;16.93;9.67;;;;;;;;;;5052400;28;20411;-68
2022/03/01 08:04:30;;;;;;;16.17;8.80;;;;;;;;;;5053382;28;20462;-64
2022/03/01 08:06:56;;;;;;;17.47;9.10;;;;;;;;;;5052389;28;20458;-65
2022/03/01 08:09:22;;;;;;;14.27;8.40;;;;;;;;;;5053869;28;20434;-77
2022/03/01 08:11:48;;;;;;;15.57;8.70;;;;;;;;;;5053698;28;20400;-76
2022/03/01 08:14:14;;;;;;;22.83;9.10;;;;;;;;;;5053741;28;20434;-77
2022/03/01 08:16:40;;;;;;;14.70;8.87;;;;;;;;;;5053343;28;20486;-74
2022/03/01 08:19:06;;;;;;;17.23;9.00;;;;;;;;;;5053346;28;20535;-76
2022/03/01 08:21:32;;;;;;;16.23;8.87;;;;;;;;;;5053270;28;20916;-78
2022/03/01 08:23:58;;;;;;;18.80;10.13;;;;;;;;;;5053034;28;20560;-73
2022/03/01 08:26:24;;;;;;;13.37;8.37;;;;;;;;;;5052923;28;20399;-69
2022/03/01 08:28:50;;;;;;;12.70;8.10;;;;;;;;;;5052960;28;20431;-73
2022/03/01 08:31:17;;;;;;;14.30;8.53;;;;;;;;;;5053135;28;20398;-79
2022/03/01 08:33:43;;;;;;;13.47;8.73;;;;;;;;;;5053210;28;20767;-76
2022/03/01 08:36:12;;;;;;;22.57;9.00;;;;;;;;;;5051965;28;20497;-76
2022/03/01 08:38:38;;;;;;;17.20;8.73;;;;;;;;;;5053109;28;20506;-77
2022/03/01 08:41:04;;;;;;;14.63;9.60;;;;;;;;;;5053101;28;20914;-78
2022/03/01 08:43:30;;;;;;;18.10;9.87;;;;;;;;;;5053129;28;20488;-76
2022/03/01 08:45:56;;;;;;;14.73;9.30;;;;;;;;;;5052930;28;20754;-60
2022/03/01 08:48:22;;;;;;;14.40;9.50;;;;;;;;;;5053036;28;20431;-66
2022/03/01 08:50:48;;;;;;;16.40;8.80;;;;;;;;;;5051713;28;20844;-63
2022/03/01 08:53:15;;;;;;;14.97;8.77;;;;;;;;;;5052897;28;20415;-61
2022/03/01 08:55:41;;;;;;;15.23;8.53;;;;;;;;;;5053051;28;20391;-65
2022/03/01 08:58:08;;;;;;;13.13;8.57;;;;;;;;;;5052744;28;20436;-64
2022/03/01 09:00:34;;;;;;;13.90;8.40;;;;;;;;;;5052937;28;20497;-62
2022/03/01 09:03:00;;;;;;;14.33;8.97;;;;;;;;;;5052992;28;20454;-65
2022/03/01 09:05:26;;;;;;;12.57;8.30;;;;;;;;;;5052462;28;20957;-63
2022/03/01 09:07:52;;;;;;;14.60;9.50;;;;;;;;;;5052787;28;20414;-70
2022/03/01 09:10:21;;;;;;;11.67;8.07;;;;;;;;;;5052803;28;20762;-66
2022/03/01 09:12:48;;;;;;;15.90;9.50;;;;;;;;;;5052737;28;20936;-66
2022/03/01 09:15:14;;;;;;;20.80;11.43;;;;;;;;;;5052564;28;20410;-62
2022/03/01 09:17:40;;;;;;;17.73;9.00;;;;;;;;;;5053875;28;20418;-64
2022/03/01 09:20:07;;;;;;;14.50;9.07;;;;;;;;;;5056467;28;20875;-65
2022/03/01 09:22:33;;;;;;;13.00;8.87;;;;;;;;;;5056535;28;20418;-63
2022/03/01 09:24:59;;;;;;;15.20;8.60;;;;;;;;;;5056277;28;20484;-64
2022/03/01 09:27:24;;;;;;;16.67;8.73;;;;;;;;;;5056326;28;20411;-65
2022/03/01 09:29:51;;;;;;;17.27;8.90;;;;;;;;;;5056323;28;20417;-71
2022/03/01 09:32:17;;;;;;;13.07;8.10;;;;;;;;;;5056326;28;20426;-78
2022/03/01 09:34:43;;;;;;;13.10;8.30;;;;;;;;;;5056104;28;20398;-75
2022/03/01 09:37:09;;;;;;;14.40;8.57;;;;;;;;;;5056274;28;20501;-77
2022/03/01 09:39:36;;;;;;;13.77;8.10;;;;;;;;;;5056225;28;20414;-79
2022/03/01 09:42:02;;;;;;;15.70;8.80;;;;;;;;;;5056036;28;20416;-78
2022/03/01 09:44:29;;;;;;;14.70;7.83;;;;;;;;;;5054798;28;20561;-75
2022/03/01 09:46:55;;;;;;;14.40;8.43;;;;;;;;;;5055987;28;20417;-77
2022/03/01 09:49:21;;;;;;;12.53;8.30;;;;;;;;;;5056141;28;20502;-78
2022/03/01 09:51:48;;;;;;;14.13;8.07;;;;;;;;;;5056100;28;20403;-74
2022/03/01 09:54:14;;;;;;;12.20;8.10;;;;;;;;;;5055931;28;20430;-78
2022/03/01 09:56:40;;;;;;;14.03;8.57;;;;;;;;;;5055936;28;20418;-77
2022/03/01 09:59:06;;;;;;;14.03;8.73;;;;;;;;;;5055722;28;20425;-70
2022/03/01 10:01:32;;;;;;;14.33;7.97;;;;;;;;;;5055860;28;20418;-77
2022/03/01 10:04:08;;;;;;;13.93;8.77;;;;;;;;;;5055673;28;20816;-78
2022/03/01 10:06:39;;;;;;;12.70;7.87;;;;;;;;;;5055447;28;20469;-78
2022/03/01 10:09:12;;;;;;;13.80;7.97;;;;;;;;;;5055686;28;20414;-75
2022/03/01 10:11:38;;;;;;;13.23;8.47;;;;;;;;;;5055673;28;20410;-81
2022/03/01 10:14:04;;;;;;;15.77;9.17;;;;;;;;;;5055556;28;20430;-79
2022/03/01 10:16:36;;;;;;;15.40;8.10;;;;;;;;;;5055370;28;20406;-78
2022/03/01 10:19:02;;;;;;;15.30;8.50;;;;;;;;;;5055517;28;20420;-76
2022/03/01 10:21:29;;;;;;;12.67;8.03;;;;;;;;;;5055535;28;20403;-78
2022/03/01 10:23:56;;;;;;;14.60;8.30;;;;;;;;;;5055223;28;20465;-79
2022/03/01 10:26:26;;;;;;;14.67;8.27;;;;;;;;;;5055542;28;20498;-77
2022/03/01 10:28:53;;;;;;;13.40;8.60;;;;;;;;;;5054631;28;20568;-78
2022/03/01 10:31:22;;;;;;;19.40;8.90;;;;;;;;;;5054925;28;20407;-62
2022/03/01 10:34:00;;;;;;;11.97;7.87;;;;;;;;;;5055240;28;20403;-63
2022/03/01 10:36:28;;;;;;;10.33;7.67;;;;;;;;;;5055082;28;20430;-61
2022/03/01 10:38:56;;;;;;;15.50;8.00;;;;;;;;;;5054960;28;20410;-65
2022/03/01 10:41:26;;;;;;;11.60;7.90;;;;;;;;;;5054853;28;20471;-70
2022/03/01 10:43:53;;;;;;;14.23;8.13;;;;;;;;;;5054782;28;20554;-68
2022/03/01 10:46:20;;;;;;;15.13;8.80;;;;;;;;;;5054787;28;20510;-61
2022/03/01 10:48:46;;;;;;;17.50;7.50;;;;;;;;;;5054883;28;20405;-65
2022/03/01 10:51:13;;;;;;;12.40;7.93;;;;;;;;;;5054865;28;20412;-64
2022/03/01 10:53:45;;;;;;;11.13;6.90;;;;;;;;;;5054655;28;20478;-61
2022/03/01 10:56:12;;;;;;;13.70;8.37;;;;;;;;;;5054588;28;20891;-61
2022/03/01 10:58:39;;;;;;;11.10;6.93;;;;;;;;;;5053310;28;20427;-62
2022/03/01 11:01:06;;;;;;;14.37;9.03;;;;;;;;;;5054839;28;20471;-71
2022/03/01 11:03:32;;;;;;;12.50;7.73;;;;;;;;;;5054772;28;20569;-70
2022/03/01 11:05:58;;;;;;;14.73;7.63;;;;;;;;;;5054104;28;20992;-65
2022/03/01 11:08:35;;;;;;;11.07;7.40;;;;;;;;;;5054377;28;20425;-78
2022/03/01 11:11:02;;;;;;;12.80;8.30;;;;;;;;;;5054510;28;20410;-79
2022/03/01 11:13:28;;;;;;;10.83;7.67;;;;;;;;;;5054306;28;20533;-77
2022/03/01 11:15:57;;;;;;;10.60;7.87;;;;;;;;;;5054107;28;20471;-72
2022/03/01 11:18:23;;;;;;;11.27;7.70;;;;;;;;;;5054422;28;20754;-75
2022/03/01 11:20:50;;;;;;;13.37;8.40;;;;;;;;;;5053034;28;20422;-76
2022/03/01 11:23:20;;;;;;;15.10;8.60;;;;;;;;;;5054270;28;20585;-79
2022/03/01 11:25:47;;;;;;;11.27;7.60;;;;;;;;;;5053760;28;20409;-76
2022/03/01 11:28:13;;;;;;;12.03;7.87;;;;;;;;;;5053865;28;20431;-77
2022/03/01 11:30:44;;;;;;;12.40;7.57;;;;;;;;;;5054260;28;20402;-75
2022/03/01 11:33:10;;;;;;;11.20;7.93;;;;;;;;;;5054134;28;20512;-78
2022/03/01 11:35:38;;;;;;;13.20;8.27;;;;;;;;;;5054077;28;20469;-77
2022/03/01 11:38:04;;;;;;;12.13;7.23;;;;;;;;;;5053919;28;20406;-73
2022/03/01 11:40:32;;;;;;;14.67;8.57;;;;;;;;;;5052370;28;20726;-77
2022/03/01 11:43:07;;;;;;;12.90;8.70;;;;;;;;;;5052457;28;20406;-75
2022/03/01 11:45:34;;;;;;;11.43;7.30;;;;;;;;;;5053723;28;20410;-62
2022/03/01 11:48:11;;;;;;;12.80;7.47;;;;;;;;;;5053593;28;20472;-71
2022/03/01 11:50:43;;;;;;;14.37;8.27;;;;;;;;;;5053756;28;20492;-68
2022/03/01 11:53:11;;;;;;;11.57;8.47;;;;;;;;;;5053640;28;20411;-63
2022/03/01 11:55:42;;;;;;;14.30;8.53;;;;;;;;;;5053545;28;20410;-63
2022/03/01 11:58:09;;;;;;;11.77;7.93;;;;;;;;;;5053586;28;20437;-70
2022/03/01 12:00:36;;;;;;;11.33;7.63;;;;;;;;;;5053516;28;20446;-65
2022/03/01 12:03:03;;;;;;;15.67;7.90;;;;;;;;;;5053387;28;20409;-72
2022/03/01 12:05:29;;;;;;;11.80;8.00;;;;;;;;;;5053264;28;20454;-76
2022/03/01 12:07:55;;;;;;;11.90;7.80;;;;;;;;;;5053439;28;20919;-76
2022/03/01 12:10:23;;;;;;;10.27;6.80;;;;;;;;;;5053535;28;20447;-76
2022/03/01 12:12:50;;;;;;;10.07;7.13;;;;;;;;;;5053425;28;20411;-78
2022/03/01 12:15:26;;;;;;;12.00;7.30;;;;;;;;;;5053212;28;20418;-78
2022/03/01 12:17:52;;;;;;;11.60;6.77;;;;;;;;;;5053416;28;20730;-78
2022/03/01 12:20:20;;;;;;;11.43;6.37;;;;;;;;;;5053316;28;20548;-71
2022/03/01 12:22:53;;;;;;;12.10;6.90;;;;;;;;;;5053241;28;20878;-77
2022/03/01 12:25:19;;;;;;;11.80;7.77;;;;;;;;;;5053490;28;20410;-79
2022/03/01 12:27:47;;;;;;;14.63;7.40;;;;;;;;;;5053147;28;20431;-76
2022/03/01 12:30:13;;;;;;;11.47;6.93;;;;;;;;;;5052021;28;20770;-77
2022/03/01 12:32:39;;;;;;;10.20;6.67;;;;;;;;;;5053336;28;20829;-78
2022/03/01 12:35:05;;;;;;;9.60;6.33;;;;;;;;;;5052344;28;20415;-65
2022/03/01 12:37:32;;;;;;;12.53;6.90;;;;;;;;;;5053098;28;20422;-64
2022/03/01 12:39:58;;;;;;;12.67;7.20;;;;;;;;;;5053146;28;20475;-69
2022/03/01 12:42:27;;;;;;;12.97;7.07;;;;;;;;;;5053151;28;20407;-63
2022/03/01 12:44:54;;;;;;;9.80;6.23;;;;;;;;;;5052751;28;20471;-72
2022/03/01 12:47:21;;;;;;;9.70;6.80;;;;;;;;;;5053027;28;20460;-62
2022/03/01 12:49:47;;;;;;;11.30;7.80;;;;;;;;;;5052926;28;20492;-61
2022/03/01 12:52:20;;;;;;;15.50;7.57;;;;;;;;;;5053103;28;20510;-61
2022/03/01 12:54:47;;;;;;;9.57;5.80;;;;;;;;;;5057382;28;20409;-71
2022/03/01 12:57:14;;;;;;;9.80;6.33;;;;;;;;;;5056715;28;20450;-69
2022/03/01 12:59:40;;;;;;;14.80;7.50;;;;;;;;;;5056686;28;20976;-74
2022/03/01 13:02:07;;;;;;;10.33;7.27;;;;;;;;;;5056778;28;20520;-70
2022/03/01 13:04:37;;;;;;;11.30;6.90;;;;;;;;;;5056602;28;20510;-71
2022/03/01 13:07:04;;;;;;;13.03;7.20;;;;;;;;;;5056773;28;20425;-66
2022/03/01 13:09:30;;;;;;;11.17;6.93;;;;;;;;;;5056749;28;20903;-76
2022/03/01 13:11:59;;;;;;;8.80;6.73;;;;;;;;;;5056751;28;20434;-71
2022/03/01 13:14:25;;;;;;;10.80;7.20;;;;;;;;;;5056535;28;20411;-72
2022/03/01 13:16:56;;;;;;;8.83;6.20;;;;;;;;;;5056664;28;20403;-68
2022/03/01 13:19:25;;;;;;;14.47;6.50;;;;;;;;;;5055313;28;20436;-76
2022/03/01 13:21:52;;;;;;;9.97;6.53;;;;;;;;;;5055491;28;20410;-78
2022/03/01 13:24:23;;;;;;;9.77;6.90;;;;;;;;;;5055151;28;20469;-75
2022/03/01 13:26:49;;;;;;;10.20;6.60;;;;;;;;;;5056514;28;20413;-74
2022/03/01 13:29:21;;;;;;;11.90;7.17;;;;;;;;;;5056372;28;20770;-75
2022/03/01 13:31:49;;;;;;;8.80;6.57;;;;;;;;;;5056360;28;20426;-63
2022/03/01 13:34:18;;;;;;;11.80;6.30;;;;;;;;;;5056243;28;20572;-67
2022/03/01 13:36:48;;;;;;;12.00;8.00;;;;;;;;;;5056098;28;20419;-61
2022/03/01 13:39:15;;;;;;;11.20;7.00;;;;;;;;;;5056086;28;20421;-66
2022/03/01 13:41:43;;;;;;;10.07;6.50;;;;;;;;;;5056093;28;20407;-62
2022/03/01 13:44:14;;;;;;;13.20;6.53;;;;;;;;;;5056002;28;20607;-65
2022/03/01 13:46:41;;;;;;;9.03;7.20;;;;;;;;;;5055928;28;20411;-66
2022/03/01 13:49:08;;;;;;;11.23;6.93;;;;;;;;;;5056241;28;20494;-68
2022/03/01 13:51:34;;;;;;;13.43;8.20;;;;;;;;;;5056465;28;20483;-64
2022/03/01 13:54:10;;;;;;;15.77;7.47;;;;;;;;;;5056334;28;20413;-72
2022/03/01 13:56:39;;;;;;;7.90;6.43;;;;;;;;;;5056204;28;20441;-77
2022/03/01 13:59:05;;;;;;;14.20;7.40;;;;;;;;;;5056016;28;20422;-77
2022/03/01 14:01:31;;;;;;;10.10;7.67;;;;;;;;;;5055840;28;20398;-74
2022/03/01 14:04:04;;;;;;;9.83;7.10;;;;;;;;;;5054310;28;20481;-76
2022/03/01 14:06:30;;;;;;;11.00;6.70;;;;;;;;;;5055500;28;20898;-78
2022/03/01 14:08:57;;;;;;;9.30;6.50;;;;;;;;;;5055776;28;20457;-80
2022/03/01 14:11:23;;;;;;;10.23;7.30;;;;;;;;;;5055761;28;20504;-76
2022/03/01 14:13:52;;;;;;;10.13;7.50;;;;;;;;;;5055824;28;20440;-79
2022/03/01 14:16:21;;;;;;;10.10;7.17;;;;;;;;;;5055630;28;20443;-66
2022/03/01 14:18:58;;;;;;;9.10;6.20;;;;;;;;;;5055468;28;20501;-69
2022/03/01 14:21:24;;;;;;;11.47;6.83;;;;;;;;;;5055496;28;20503;-61
2022/03/01 14:23:50;;;;;;;10.80;7.33;;;;;;;;;;5055132;28;20971;-61
2022/03/01 14:26:17;;;;;;;12.90;7.13;;;;;;;;;;5055162;28;20948;-65
2022/03/01 14:29:01;;;;;;;12.60;6.83;;;;;;;;;;5055040;28;20513;-65
2022/03/01 14:31:27;;;;;;;10.63;7.13;;;;;;;;;;5055218;28;20888;-68
2022/03/01 14:33:54;;;;;;;10.33;6.90;;;;;;;;;;5055326;28;20421;-68
2022/03/01 14:36:20;;;;;;;10.37;7.40;;;;;;;;;;5055149;28;20447;-61
2022/03/01 14:38:46;;;;;;;12.20;6.83;;;;;;;;;;5055072;28;20433;-65
2022/03/01 14:41:13;;;;;;;11.27;7.20;;;;;;;;;;5055149;28;20402;-65
2022/03/01 14:43:39;;;;;;;10.63;7.23;;;;;;;;;;5055029;28;20544;-61
2022/03/01 14:46:05;;;;;;;9.50;7.47;;;;;;;;;;5055099;28;20414;-63
2022/03/01 14:48:31;;;;;;;8.80;6.47;;;;;;;;;;5055576;28;20462;-66
2022/03/01 14:50:57;;;;;;;8.90;6.77;;;;;;;;;;5054764;28;20462;-67
2022/03/01 14:53:24;;;;;;;11.43;7.17;;;;;;;;;;5053607;28;20410;-71
2022/03/01 14:55:51;;;;;;;10.77;7.50;;;;;;;;;;5053762;28;20459;-71
2022/03/01 14:58:17;;;;;;;13.07;7.60;;;;;;;;;;5054643;28;20434;-75
2022/03/01 15:00:43;;;;;;;11.40;7.97;;;;;;;;;;5054715;28;20421;-76